Terminal Aerodrome Forecast
Issued by NWS Grand Forks, ND

Home | Current Version | Previous Version | Graphics & Text | Print | Product List | Glossary On
Versions: 1 2 3 4 5 6 7 8 9 10 11 12 13 14 15 16
000
FTUS43 KFGF 270520
TAFGFK
TAF
KGFK 270520Z 2706/2806 19006KT P6SM SCT080
     FM270900 18005KT P6SM BKN110
     FM271800 19010KT P6SM SCT080
     FM280200 17005KT P6SM SCT250=

USA.gov is the U.S. government's official web portal to all federal, state and local government web resources and services.